Time;durP1;ratioP1;P1;durP2;ratioP2;P2;SDS_P1;SDS_P2;PMS_P1;PMS_P2;Temp;Humidity;BMP_temperature;BMP_pressure;BME280_temperature;BME280_humidity;BME280_pressure;Samples;Min_cycle;Max_cycle;Signal;HPM_P1;HPM_P2
2023/11/23 00:00:15;;;;;;;22.60;14.77;;;;;;;6.83;100.00;102351.28;5116985;28;20044;-64
2023/11/23 00:03:03;;;;;;;21.38;14.02;;;;;;;6.85;100.00;102355.63;5110437;27;20093;-66
2023/11/23 00:05:51;;;;;;;24.08;13.52;;;;;;;6.85;100.00;102350.22;5101324;27;20035;-65
2023/11/23 00:08:41;;;;;;;24.30;15.38;;;;;;;6.86;100.00;102349.19;5146824;27;20089;-63
2023/11/23 00:11:29;;;;;;;22.23;15.48;;;;;;;6.87;100.00;102348.13;5130589;28;20048;-65
2023/11/23 00:14:17;;;;;;;22.67;14.68;;;;;;;6.86;100.00;102344.59;5092399;27;20050;-67
2023/11/23 00:17:05;;;;;;;22.60;15.05;;;;;;;6.89;100.00;102346.06;5105906;27;20197;-67
2023/11/23 00:19:54;;;;;;;20.00;14.05;;;;;;;6.90;100.00;102335.00;5108002;27;20103;-66
2023/11/23 00:22:42;;;;;;;25.10;16.50;;;;;;;6.92;100.00;102340.22;5117116;27;20039;-65
2023/11/23 00:25:30;;;;;;;19.40;13.30;;;;;;;6.91;100.00;102317.72;5114413;27;20184;-67
2023/11/23 00:28:19;;;;;;;24.67;16.17;;;;;;;6.92;100.00;102326.69;5112322;28;20047;-67
2023/11/23 00:31:07;;;;;;;19.20;13.10;;;;;;;6.93;100.00;102322.94;5094026;28;20048;-66
2023/11/23 00:33:55;;;;;;;23.25;15.30;;;;;;;6.93;100.00;102318.34;5082509;28;20041;-67
2023/11/23 00:36:43;;;;;;;21.58;14.02;;;;;;;6.95;100.00;102315.41;5113890;28;20124;-67
2023/11/23 00:39:31;;;;;;;21.48;15.27;;;;;;;6.94;100.00;102313.75;5076256;28;20036;-67
2023/11/23 00:42:19;;;;;;;17.95;12.90;;;;;;;6.94;100.00;102302.91;5092599;28;20052;-67
2023/11/23 00:45:08;;;;;;;19.83;12.98;;;;;;;6.95;100.00;102300.00;5105421;28;20070;-66
2023/11/23 00:47:56;;;;;;;20.27;14.50;;;;;;;6.96;100.00;102303.56;5112511;28;20047;-69
2023/11/23 00:50:44;;;;;;;23.65;15.35;;;;;;;6.95;100.00;102297.31;5074163;28;20044;-66
2023/11/23 00:53:32;;;;;;;22.23;13.45;;;;;;;7.00;100.00;102296.69;5094732;28;20048;-65
2023/11/23 00:56:20;;;;;;;21.80;14.82;;;;;;;7.00;100.00;102293.97;5084056;28;20563;-67
2023/11/23 00:59:08;;;;;;;24.27;14.90;;;;;;;7.02;100.00;102291.88;5106925;28;20047;-67
2023/11/23 01:01:56;;;;;;;20.58;14.07;;;;;;;7.02;100.00;102291.88;5088009;28;20035;-66
2023/11/23 01:04:44;;;;;;;16.73;12.40;;;;;;;7.04;100.00;102289.78;5083466;28;20062;-66
2023/11/23 01:07:34;;;;;;;22.63;14.85;;;;;;;7.05;100.00;102291.47;5098069;28;20534;-66
2023/11/23 01:10:22;;;;;;;22.65;14.65;;;;;;;7.05;100.00;102291.47;5109422;28;20051;-66
2023/11/23 01:13:11;;;;;;;21.05;14.25;;;;;;;7.06;100.00;102290.41;5097915;28;20474;-66
2023/11/23 01:15:59;;;;;;;25.40;15.63;;;;;;;7.08;100.00;102279.38;5083653;28;20052;-67
2023/11/23 01:18:48;;;;;;;24.65;14.50;;;;;;;7.09;100.00;102279.16;5095673;28;20051;-66
2023/11/23 01:21:35;;;;;;;20.30;14.43;;;;;;;7.11;100.00;102271.66;5102812;28;20136;-66
2023/11/23 01:24:23;;;;;;;21.80;14.13;;;;;;;7.11;100.00;102274.34;5126752;28;20104;-67
2023/11/23 01:27:11;;;;;;;20.45;13.88;;;;;;;7.15;100.00;102267.47;5116312;28;20455;-66
2023/11/23 01:29:59;;;;;;;23.05;14.98;;;;;;;7.15;100.00;102274.78;5142234;27;20092;-67
2023/11/23 01:32:48;;;;;;;21.15;14.23;;;;;;;7.18;100.00;102272.47;5106897;28;20403;-66
2023/11/23 01:35:36;;;;;;;18.83;12.63;;;;;;;7.19;100.00;102266.03;5105402;28;20043;-67
2023/11/23 01:38:24;;;;;;;24.42;13.68;;;;;;;7.21;100.00;102260.38;5105946;28;20048;-67
2023/11/23 01:41:12;;;;;;;19.40;13.10;;;;;;;7.22;100.00;102264.78;5123513;27;20047;-66
2023/11/23 01:44:00;;;;;;;18.70;12.80;;;;;;;7.25;100.00;102262.47;5122219;27;20075;-66
2023/11/23 01:46:48;;;;;;;20.15;12.75;;;;;;;7.26;100.00;102260.56;5137447;27;20077;-66
2023/11/23 01:49:37;;;;;;;26.23;13.05;;;;;;;7.28;100.00;102260.38;5108280;27;20126;-66
2023/11/23 01:52:26;;;;;;;18.45;12.40;;;;;;;7.31;100.00;102259.94;5092471;28;20048;-66
2023/11/23 01:55:14;;;;;;;19.85;12.55;;;;;;;7.32;100.00;102261.63;5080266;28;20040;-65
2023/11/23 01:58:04;;;;;;;18.83;12.45;;;;;;;7.33;100.00;102260.56;5081127;28;20047;-66
2023/11/23 02:00:52;;;;;;;19.60;12.68;;;;;;;7.35;100.00;102253.06;5059107;28;20044;-66
2023/11/23 02:03:40;;;;;;;16.35;11.13;;;;;;;7.37;100.00;102249.09;5080716;28;20137;-66
2023/11/23 02:06:28;;;;;;;17.13;11.40;;;;;;;7.39;100.00;102246.19;5066583;28;20500;-66
2023/11/23 02:09:16;;;;;;;17.90;11.00;;;;;;;7.39;100.00;102246.19;5079314;28;20516;-66
2023/11/23 02:12:06;;;;;;;17.05;10.95;;;;;;;7.43;100.00;102237.41;5091799;28;20439;-66
2023/11/23 02:14:55;;;;;;;17.50;10.88;;;;;;;7.46;100.00;102236.16;5079521;28;20048;-66
2023/11/23 02:17:43;;;;;;;17.33;10.00;;;;;;;7.50;100.00;102236.56;5067283;28;20052;-66
2023/11/23 02:20:31;;;;;;;17.90;10.57;;;;;;;7.51;100.00;102228.22;5079782;28;20043;-67
2023/11/23 02:23:20;;;;;;;19.73;11.35;;;;;;;7.54;100.00;102233.22;5073946;28;20055;-67
2023/11/23 02:26:08;;;;;;;15.30;9.43;;;;;;;7.54;100.00;102227.78;5060369;28;20515;-66
2023/11/23 02:28:56;;;;;;;16.80;9.95;;;;;;;7.56;100.00;102231.13;5059733;28;20131;-66
2023/11/23 02:31:44;;;;;;;20.42;9.55;;;;;;;7.58;100.00;102234.47;5075894;28;20044;-66
2023/11/23 02:34:33;;;;;;;16.77;10.40;;;;;;;7.58;100.00;102241.78;5093181;28;20040;-66
2023/11/23 02:37:21;;;;;;;18.50;9.63;;;;;;;7.59;100.00;102236.13;5094684;28;20132;-67
2023/11/23 02:40:10;;;;;;;17.17;10.10;;;;;;;7.60;100.00;102221.53;5093586;28;20100;-66
2023/11/23 02:43:02;;;;;;;15.13;9.48;;;;;;;7.61;100.00;102234.03;5079969;28;20497;-66
2023/11/23 02:45:51;;;;;;;16.65;9.75;;;;;;;7.64;100.00;102236.31;5066349;28;20204;-66
2023/11/23 02:48:39;;;;;;;16.80;9.85;;;;;;;7.67;100.00;102237.75;5026430;28;20071;-65
2023/11/23 02:51:27;;;;;;;15.90;9.20;;;;;;;7.67;100.00;102249.47;5093538;28;20385;-66
2023/11/23 02:54:15;;;;;;;16.50;9.73;;;;;;;7.68;100.00;102244.84;5084949;27;21176;-66
2023/11/23 02:57:03;;;;;;;19.55;10.68;;;;;;;7.69;100.00;102247.34;5120636;27;20047;-66
2023/11/23 02:59:51;;;;;;;15.02;9.13;;;;;;;7.68;100.00;102240.25;5110904;28;20526;-66
2023/11/23 03:02:39;;;;;;;15.65;9.65;;;;;;;7.71;100.00;102238.16;5099291;28;20044;-66
2023/11/23 03:05:27;;;;;;;16.20;9.32;;;;;;;7.72;100.00;102239.81;5095908;28;20448;-66
2023/11/23 03:08:15;;;;;;;12.93;8.75;;;;;;;7.73;100.00;102225.22;5113924;28;20056;-66
2023/11/23 03:11:04;;;;;;;14.98;8.80;;;;;;;7.74;100.00;102232.31;5099473;28;20043;-65
2023/11/23 03:13:54;;;;;;;16.20;9.30;;;;;;;7.76;100.00;102224.78;5084807;27;20046;-66
2023/11/23 03:16:44;;;;;;;14.15;9.20;;;;;;;7.77;100.00;102226.44;5109668;28;20515;-66
2023/11/23 03:19:32;;;;;;;15.10;9.20;;;;;;;7.76;100.00;102220.19;5114527;27;20039;-65
2023/11/23 03:22:20;;;;;;;14.43;9.15;;;;;;;7.78;100.00;102218.09;5086083;28;20506;-66
2023/11/23 03:25:09;;;;;;;15.07;9.73;;;;;;;7.80;100.00;102212.47;5116514;28;20491;-65
2023/11/23 03:27:57;;;;;;;15.30;8.43;;;;;;;7.85;100.00;102218.91;5107249;28;20051;-66
2023/11/23 03:30:45;;;;;;;16.55;9.50;;;;;;;7.86;100.00;102220.59;5115712;28;20101;-66
2023/11/23 03:33:33;;;;;;;15.45;9.27;;;;;;;7.86;100.00;102217.03;5103316;28;20062;-68
2023/11/23 03:36:21;;;;;;;16.70;9.15;;;;;;;7.87;100.00;102221.41;5107525;28;20051;-66
2023/11/23 03:39:09;;;;;;;17.08;9.52;;;;;;;7.89;100.00;102219.31;5084920;28;20097;-66
2023/11/23 03:41:57;;;;;;;14.55;10.23;;;;;;;7.90;100.00;102213.66;5098518;28;20053;-64
2023/11/23 03:44:45;;;;;;;15.32;9.27;;;;;;;7.94;100.00;102215.94;5075951;27;20566;-67
2023/11/23 03:47:33;;;;;;;17.52;10.32;;;;;;;7.94;100.00;102215.94;5133918;27;20051;-66
2023/11/23 03:50:21;;;;;;;17.40;10.00;;;;;;;7.94;100.00;102208.66;5104721;28;20154;-66
2023/11/23 03:53:10;;;;;;;18.10;10.45;;;;;;;7.95;100.00;102210.31;5112892;27;20463;-66
2023/11/23 03:55:58;;;;;;;16.58;11.35;;;;;;;7.95;100.00;102213.00;5090510;28;20415;-66
2023/11/23 03:58:47;;;;;;;12.98;8.75;;;;;;;7.98;100.00;102204.44;5113979;28;20521;-66
2023/11/23 04:01:42;;;;;;;17.15;11.43;;;;;;;7.99;100.00;102210.72;5113189;28;20047;-66
2023/11/23 04:04:31;;;;;;;17.23;10.37;;;;;;;7.99;100.00;102208.84;5098015;28;20475;-67
2023/11/23 04:07:19;;;;;;;15.23;9.93;;;;;;;8.01;100.00;102197.75;5100003;28;20047;-67
2023/11/23 04:10:07;;;;;;;20.30;12.23;;;;;;;8.02;100.00;102202.13;5113813;28;20043;-67
2023/11/23 04:12:55;;;;;;;16.77;10.75;;;;;;;8.03;100.00;102210.06;5113527;28;20087;-66
2023/11/23 04:15:45;;;;;;;16.67;11.05;;;;;;;8.06;100.00;102200.66;5098581;27;20051;-66
2023/11/23 04:18:33;;;;;;;16.08;10.80;;;;;;;8.07;100.00;102203.13;5103604;27;20402;-65
2023/11/23 04:21:21;;;;;;;19.48;11.00;;;;;;;8.07;100.00;102205.84;5115022;27;20122;-67
2023/11/23 04:24:09;;;;;;;17.65;11.52;;;;;;;8.08;100.00;102202.09;5106743;27;20039;-67
2023/11/23 04:26:58;;;;;;;18.70;11.95;;;;;;;8.08;100.00;102207.53;5128519;27;20039;-67
2023/11/23 04:29:47;;;;;;;18.90;12.57;;;;;;;8.07;100.00;102203.13;5099861;28;20048;-65
2023/11/23 04:32:36;;;;;;;21.15;12.27;;;;;;;8.07;100.00;102199.59;5147587;27;20058;-63
2023/11/23 04:35:24;;;;;;;19.55;12.93;;;;;;;8.09;100.00;102192.91;5101743;28;20044;-67
2023/11/23 04:38:12;;;;;;;20.98;13.35;;;;;;;8.13;100.00;102192.47;5116122;27;20044;-66
2023/11/23 04:41:01;;;;;;;19.25;12.48;;;;;;;8.14;100.00;102186.00;5123625;28;20107;-65
2023/11/23 04:43:49;;;;;;;17.92;11.68;;;;;;;8.11;100.00;102190.81;5130026;28;20044;-63
2023/11/23 04:46:38;;;;;;;19.55;11.95;;;;;;;8.11;100.00;102189.97;5110679;28;20047;-67
2023/11/23 04:49:26;;;;;;;17.63;11.60;;;;;;;8.09;100.00;102192.91;5079327;28;20052;-67
2023/11/23 04:52:13;;;;;;;19.42;11.95;;;;;;;8.09;100.00;102192.91;5096250;28;20048;-66
2023/11/23 04:55:03;;;;;;;20.10;11.98;;;;;;;8.08;100.00;102193.97;5092206;28;20082;-67
2023/11/23 04:57:51;;;;;;;15.68;11.23;;;;;;;8.10;100.00;102205.44;5091100;28;20060;-66
2023/11/23 05:00:39;;;;;;;17.23;11.35;;;;;;;8.13;100.00;102206.03;5078146;28;20464;-67
2023/11/23 05:03:30;;;;;;;17.63;11.65;;;;;;;8.12;100.00;102207.91;5074614;28;20044;-66
2023/11/23 05:06:18;;;;;;;20.25;11.63;;;;;;;8.16;100.00;102205.63;5091592;28;20043;-66
2023/11/23 05:09:07;;;;;;;15.63;11.00;;;;;;;8.18;100.00;102198.91;5054093;28;20058;-67
2023/11/23 05:11:55;;;;;;;17.52;11.60;;;;;;;8.19;100.00;102197.03;5085987;28;20055;-66
2023/11/23 05:14:46;;;;;;;19.25;11.45;;;;;;;8.18;100.00;102206.19;5090368;28;20409;-67
2023/11/23 05:17:34;;;;;;;18.05;11.20;;;;;;;8.21;100.00;102200.38;5091937;28;20504;-66
2023/11/23 05:20:22;;;;;;;16.95;10.07;;;;;;;8.23;100.00;102190.94;5081559;28;20123;-67
2023/11/23 05:23:10;;;;;;;21.42;11.50;;;;;;;8.26;100.00;102203.25;5097034;28;20048;-66
2023/11/23 05:25:59;;;;;;;14.02;9.45;;;;;;;8.26;100.00;102197.81;5076813;28;20079;-65
2023/11/23 05:28:47;;;;;;;17.50;10.32;;;;;;;8.25;100.00;102193.41;5092033;28;20088;-68
2023/11/23 05:31:35;;;;;;;19.48;11.73;;;;;;;8.24;100.00;102186.34;5072187;28;20052;-67
2023/11/23 05:34:23;;;;;;;17.00;10.80;;;;;;;8.27;100.00;102184.03;5056470;28;20488;-66
2023/11/23 05:37:11;;;;;;;15.55;10.50;;;;;;;8.28;100.00;102190.28;5057581;28;20484;-66
2023/11/23 05:39:59;;;;;;;18.27;11.10;;;;;;;8.29;100.00;102192.78;5080718;28;20120;-66
2023/11/23 05:42:49;;;;;;;16.75;10.15;;;;;;;8.33;100.00;102193.19;5093477;28;20052;-66
2023/11/23 05:45:50;;;;;;;17.20;10.77;;;;;;;8.37;100.00;102175.41;5091906;28;20047;-66
2023/11/23 05:48:38;;;;;;;19.83;10.63;;;;;;;8.36;100.00;102179.16;5092164;28;20044;-66
2023/11/23 05:51:27;;;;;;;14.05;8.93;;;;;;;8.35;100.00;102185.66;5076231;28;20418;-66
2023/11/23 05:54:16;;;;;;;20.38;12.23;;;;;;;8.37;100.00;102185.41;5098112;28;20138;-67
2023/11/23 05:57:04;;;;;;;21.48;12.68;;;;;;;8.37;100.00;102178.13;5112373;28;20526;-66
2023/11/23 05:59:52;;;;;;;19.33;12.63;;;;;;;8.40;100.00;102176.88;5112595;28;20040;-66
2023/11/23 06:02:41;;;;;;;21.75;12.90;;;;;;;8.40;100.00;102171.44;5111594;28;20047;-66
2023/11/23 06:05:29;;;;;;;21.27;12.45;;;;;;;8.39;100.00;102156.97;5119024;28;20044;-66
2023/11/23 06:08:17;;;;;;;18.40;11.35;;;;;;;8.40;100.00;102166.84;5117303;28;20503;-66
2023/11/23 06:11:06;;;;;;;19.38;11.40;;;;;;;8.40;100.00;102166.84;5096778;28;20048;-66
2023/11/23 06:13:54;;;;;;;14.95;10.13;;;;;;;8.45;100.00;102164.28;5112716;28;20080;-65
2023/11/23 06:16:42;;;;;;;17.50;11.48;;;;;;;8.43;100.00;102155.53;5116956;28;20040;-66
2023/11/23 06:19:30;;;;;;;17.35;10.35;;;;;;;8.42;100.00;102159.31;5115240;28;20375;-66
2023/11/23 06:22:18;;;;;;;15.27;9.05;;;;;;;8.43;100.00;102155.53;4394816;28;10000504;-67
2023/11/23 06:25:07;;;;;;;21.13;10.75;;;;;;;8.44;100.00;102156.34;5113609;28;20515;-67
2023/11/23 06:27:56;;;;;;;17.70;10.88;;;;;;;8.46;100.00;102149.63;5099749;28;20080;-69
2023/11/23 06:31:00;;;;;;;;;;;;;;;8.47;100.00;102150.50;5102812;28;20176;-66
2023/11/23 06:33:48;;;;;;;17.70;10.52;;;;;;;8.49;100.00;102154.66;5122015;28;19931;-66
2023/11/23 06:36:40;;;;;;;16.08;10.70;;;;;;;8.51;100.00;102158.00;5084910;28;20040;-66
2023/11/23 06:39:36;;;;;;;14.50;9.75;;;;;;;8.51;100.00;102155.28;5124503;28;20043;-67
2023/11/23 06:42:24;;;;;;;15.98;9.98;;;;;;;8.49;100.00;102160.09;5101689;28;20492;-67
2023/11/23 06:45:16;;;;;;;13.73;8.93;;;;;;;8.51;100.00;102160.69;5095521;28;20114;-66
2023/11/23 06:48:04;;;;;;;19.23;9.60;;;;;;;8.53;100.00;102165.91;5111107;28;20047;-68
2023/11/23 06:50:52;;;;;;;15.07;9.55;;;;;;;8.53;100.00;102158.56;5090483;28;20043;-66
2023/11/23 06:53:45;;;;;;;17.10;10.68;;;;;;;8.53;100.00;102157.75;5110044;28;20052;-66
2023/11/23 06:56:33;;;;;;;14.88;8.95;;;;;;;8.56;100.00;102159.19;5095600;28;20595;-66
2023/11/23 06:59:21;;;;;;;16.63;10.65;;;;;;;8.56;100.00;102156.47;5112054;27;20043;-67
2023/11/23 07:02:09;;;;;;;18.52;9.43;;;;;;;8.56;100.00;102154.56;5086755;28;20497;-67
2023/11/23 07:05:00;;;;;;;15.43;9.23;;;;;;;8.56;100.00;102137.44;5103388;28;20040;-67
2023/11/23 07:07:49;;;;;;;17.77;10.57;;;;;;;8.58;100.00;102135.34;5111865;28;20055;-67
2023/11/23 07:10:40;;;;;;;15.40;10.48;;;;;;;8.57;100.00;102142.69;5096826;28;20134;-68
2023/11/23 07:13:30;;;;;;;17.08;9.32;;;;;;;8.57;100.00;102139.13;5095202;28;20476;-67
2023/11/23 07:16:19;;;;;;;16.20;10.75;;;;;;;8.57;100.00;102133.69;5096632;28;20119;-68
2023/11/23 07:19:08;;;;;;;18.90;10.75;;;;;;;8.58;100.00;102130.75;5109508;28;20687;-69
2023/11/23 07:21:56;;;;;;;16.98;10.20;;;;;;;8.56;100.00;102130.13;5094318;28;20092;-68
2023/11/23 07:24:44;;;;;;;13.82;9.57;;;;;;;8.57;100.00;102133.69;5115452;27;20050;-66
2023/11/23 07:27:33;;;;;;;17.05;10.32;;;;;;;8.57;100.00;102117.41;5103299;28;20051;-67
2023/11/23 07:30:22;;;;;;;19.20;9.63;;;;;;;8.58;100.00;102119.88;5080689;28;20078;-68
2023/11/23 07:33:11;;;;;;;15.20;10.80;;;;;;;8.57;100.00;102114.69;5095865;28;20101;-67
2023/11/23 07:36:02;;;;;;;13.35;8.55;;;;;;;8.56;100.00;102116.53;5096324;28;20169;-68
2023/11/23 07:38:50;;;;;;;16.10;10.27;;;;;;;8.58;100.00;102121.78;5080565;28;20047;-67
2023/11/23 07:41:39;;;;;;;15.77;9.38;;;;;;;8.61;100.00;102129.47;5109398;28;20511;-66
2023/11/23 07:44:28;;;;;;;14.77;8.82;;;;;;;8.68;100.00;102122.09;5095087;28;20106;-67
2023/11/23 07:47:16;;;;;;;15.02;9.90;;;;;;;8.65;100.00;102133.41;5111383;28;20046;-67
2023/11/23 07:50:04;;;;;;;23.00;9.88;;;;;;;8.66;100.00;102130.47;5109727;28;20047;-68
2023/11/23 07:52:52;;;;;;;17.95;10.13;;;;;;;8.69;100.00;102131.91;5110124;28;20150;-68
2023/11/23 07:55:40;;;;;;;14.90;8.77;;;;;;;8.69;100.00;102131.91;5079347;28;20044;-67
2023/11/23 07:58:28;;;;;;;19.50;10.20;;;;;;;8.66;100.00;102132.34;5110515;28;20051;-67
2023/11/23 08:01:16;;;;;;;15.70;9.85;;;;;;;8.67;100.00;102134.03;5113117;27;20047;-66
2023/11/23 08:04:04;;;;;;;15.77;9.50;;;;;;;8.66;100.00;102126.91;5108669;28;20138;-66
2023/11/23 08:06:54;;;;;;;15.35;9.88;;;;;;;8.65;100.00;102126.09;5077022;28;20052;-67
2023/11/23 08:09:42;;;;;;;14.93;9.60;;;;;;;8.66;100.00;102130.47;5093790;28;20040;-67
2023/11/23 08:12:32;;;;;;;16.27;9.48;;;;;;;8.69;100.00;102137.34;5095919;28;20047;-68
2023/11/23 08:15:21;;;;;;;14.25;8.82;;;;;;;8.72;100.00;102117.88;5094292;28;20180;-67
2023/11/23 08:18:09;;;;;;;17.15;10.32;;;;;;;8.70;100.00;102133.56;5095453;27;20053;-67
2023/11/23 08:20:58;;;;;;;13.75;7.50;;;;;;;8.72;100.00;102120.59;5104444;27;20054;-67
2023/11/23 08:23:47;;;;;;;16.27;9.02;;;;;;;8.73;100.00;102127.69;5103856;27;20476;-66
2023/11/23 08:26:35;;;;;;;14.30;8.82;;;;;;;8.73;100.00;102119.53;5110278;28;20523;-67
2023/11/23 08:29:23;;;;;;;13.38;7.78;;;;;;;8.77;100.00;102126.19;5107754;28;20067;-66
2023/11/23 08:32:12;;;;;;;16.98;8.95;;;;;;;8.79;100.00;102115.94;5080936;28;20043;-68
2023/11/23 08:35:02;;;;;;;15.77;8.90;;;;;;;8.81;100.00;102116.53;5095337;28;20520;-67
2023/11/23 08:37:50;;;;;;;16.42;8.77;;;;;;;8.80;100.00;102119.47;5096026;27;20043;-67
2023/11/23 08:40:39;;;;;;;17.77;8.52;;;;;;;8.88;100.00;102114.59;5115161;27;20039;-67
2023/11/23 08:43:27;;;;;;;19.08;9.23;;;;;;;8.87;100.00;102107.47;5127400;27;20047;-67
2023/11/23 08:46:15;;;;;;;26.67;11.57;;;;;;;8.94;100.00;102101.97;5089818;27;20047;-66
2023/11/23 08:49:03;;;;;;;17.02;10.20;;;;;;;8.93;100.00;102095.72;5079442;28;20075;-66
2023/11/23 08:51:51;;;;;;;16.90;9.75;;;;;;;8.93;100.00;102093.00;5093386;28;20047;-67
2023/11/23 08:54:39;;;;;;;14.13;9.10;;;;;;;8.94;100.00;102102.78;5097045;28;20043;-67
2023/11/23 08:57:28;;;;;;;15.27;9.43;;;;;;;8.95;100.00;102082.72;5114959;28;20071;-67
2023/11/23 09:00:23;;;;;;;16.75;9.13;;;;;;;8.96;100.00;102081.66;5097795;28;20519;-68
2023/11/23 09:03:11;;;;;;;18.17;7.73;;;;;;;9.00;100.00;102067.63;5108677;28;20054;-67
2023/11/23 09:06:00;;;;;;;19.25;8.93;;;;;;;9.00;100.00;102073.06;5111956;28;20225;-67
2023/11/23 09:08:48;;;;;;;16.08;8.55;;;;;;;9.02;100.00;102087.25;5109246;28;20052;-68
2023/11/23 09:11:37;;;;;;;13.52;7.53;;;;;;;9.03;100.00;102091.63;5092090;28;20100;-68
2023/11/23 09:14:25;;;;;;;17.75;8.10;;;;;;;9.04;100.00;102096.00;5089151;28;20077;-68
2023/11/23 09:17:13;;;;;;;15.40;7.78;;;;;;;9.04;100.00;102096.81;5095071;28;20039;-68
2023/11/23 09:20:01;;;;;;;16.20;7.43;;;;;;;9.09;100.00;102088.84;5125102;28;20097;-68
2023/11/23 09:22:49;;;;;;;15.00;7.57;;;;;;;9.10;100.00;102078.81;5091179;28;20613;-67
2023/11/23 09:25:38;;;;;;;12.68;6.95;;;;;;;9.12;100.00;102066.63;5110335;28;20096;-67
2023/11/23 09:28:26;;;;;;;17.88;7.13;;;;;;;9.14;100.00;102059.09;5093334;28;20056;-67
2023/11/23 09:31:17;;;;;;;13.20;6.65;;;;;;;9.17;100.00;102050.47;5114767;28;20040;-66
2023/11/23 09:34:06;;;;;;;18.80;7.28;;;;;;;9.24;100.00;102041.41;5127112;28;20467;-68
2023/11/23 09:36:54;;;;;;;18.20;7.18;;;;;;;9.23;100.00;102053.31;5115255;28;20189;-68
2023/11/23 09:39:45;;;;;;;12.90;6.72;;;;;;;9.26;100.00;102044.69;5125253;28;20050;-68
2023/11/23 09:42:35;;;;;;;12.93;6.65;;;;;;;9.27;100.00;102059.97;5094994;28;20448;-66
2023/11/23 09:45:24;;;;;;;16.58;6.95;;;;;;;9.26;100.00;102056.44;5115728;28;20045;-67
2023/11/23 09:48:14;;;;;;;14.32;6.32;;;;;;;9.27;100.00;102058.09;5116545;28;20040;-65
2023/11/23 09:51:03;;;;;;;18.08;6.45;;;;;;;9.32;100.00;102047.34;5113855;28;20335;-68
2023/11/23 09:53:54;;;;;;;15.68;6.60;;;;;;;9.38;100.00;102040.19;5087105;28;20116;-66
2023/11/23 09:56:43;;;;;;;15.23;6.40;;;;;;;9.42;100.00;102043.25;5083941;28;20139;-64
2023/11/23 09:59:31;;;;;;;10.23;5.25;;;;;;;9.42;100.00;102037.81;5067491;28;20036;-67
2023/11/23 10:02:22;;;;;;;13.90;5.70;;;;;;;9.48;100.00;102036.91;5081132;28;20185;-67
2023/11/23 10:05:15;;;;;;;10.63;5.20;;;;;;;9.47;100.00;102030.59;5081271;28;20625;-66
2023/11/23 10:08:04;;;;;;;11.90;5.20;;;;;;;9.49;100.00;102033.09;5096515;28;20131;-66
2023/11/23 10:10:52;;;;;;;14.43;5.68;;;;;;;9.53;100.00;102026.97;5067852;28;20064;-66
2023/11/23 10:13:40;;;;;;;15.70;5.80;;;;;;;9.54;100.00;102020.47;5079554;28;20044;-65
2023/11/23 10:16:31;;;;;;;15.38;5.65;;;;;;;9.59;100.00;101992.56;5067544;28;20056;-65
2023/11/23 10:19:23;;;;;;;14.07;5.18;;;;;;;9.60;100.00;101994.22;5065822;28;20040;-67
2023/11/23 10:22:11;;;;;;;13.77;5.20;;;;;;;9.60;100.00;101991.50;5094904;28;20047;-66
2023/11/23 10:24:59;;;;;;;13.50;5.60;;;;;;;9.62;100.00;102000.28;5110286;28;20082;-66
2023/11/23 10:27:47;;;;;;;15.55;5.45;;;;;;;9.64;100.00;102010.91;5081104;28;20052;-67
2023/11/23 10:30:39;;;;;;;17.65;5.63;;;;;;;9.69;100.00;102001.00;5097447;28;20090;-66
2023/11/23 10:33:29;;;;;;;11.43;5.30;;;;;;;9.69;100.00;102001.00;5080248;28;20511;-65
2023/11/23 10:36:20;;;;;;;16.77;5.50;;;;;;;9.74;100.00;101994.84;5080540;28;20455;-65
2023/11/23 10:39:12;;;;;;;12.07;5.35;;;;;;;9.77;100.00;101991.66;5069150;28;20050;-65
2023/11/23 10:42:02;;;;;;;12.45;4.90;;;;;;;9.78;100.00;101994.13;5081432;28;20051;-65
2023/11/23 10:44:50;;;;;;;9.77;4.57;;;;;;;9.76;100.00;102004.41;5102321;28;20040;-65
2023/11/23 10:47:43;;;;;;;13.20;5.15;;;;;;;9.83;100.00;101985.28;5091776;28;20071;-65
2023/11/23 10:50:33;;;;;;;15.55;4.78;;;;;;;9.82;100.00;101989.88;5096619;28;20058;-65
2023/11/23 10:53:22;;;;;;;11.32;4.60;;;;;;;9.82;100.00;101987.16;5109886;28;20062;-66
2023/11/23 10:56:20;;;;;;;11.05;4.88;;;;;;;9.81;100.00;101992.84;5099070;28;20072;-66
2023/11/23 10:59:13;;;;;;;11.98;5.55;;;;;;;9.82;100.00;101978.19;5101927;28;20059;-66
2023/11/23 11:02:01;;;;;;;10.93;4.78;;;;;;;9.87;100.00;101985.66;5101268;27;20039;-66
2023/11/23 11:04:49;;;;;;;15.50;4.75;;;;;;;9.88;100.00;101973.69;5108467;27;20035;-66
2023/11/23 11:07:38;;;;;;;10.25;3.78;;;;;;;9.89;100.00;101968.00;5118834;28;20047;-66
2023/11/23 11:10:27;;;;;;;9.48;4.20;;;;;;;9.94;100.00;101940.09;5101565;28;20191;-66
2023/11/23 11:13:28;;;;;;;11.90;4.60;;;;;;;9.97;100.00;101936.88;4384955;27;9999911;-67
2023/11/23 11:16:17;;;;;;;11.10;3.88;;;;;;;10.02;100.00;101923.38;5118954;27;20042;-66
2023/11/23 11:19:06;;;;;;;9.13;4.13;;;;;;;10.05;100.00;101922.06;5095786;28;20099;-67
2023/11/23 11:22:01;;;;;;;11.73;4.20;;;;;;;10.08;100.00;101936.06;5093510;27;20047;-66
2023/11/23 11:24:57;;;;;;;12.05;3.97;;;;;;;10.09;100.00;101924.09;5115542;27;20078;-67
2023/11/23 11:27:46;;;;;;;9.02;4.00;;;;;;;10.13;100.00;101917.09;5130879;27;20047;-68
2023/11/23 11:30:36;;;;;;;9.88;4.03;;;;;;;10.16;100.00;101908.47;5119639;27;20152;-66
2023/11/23 11:33:24;;;;;;;10.75;4.47;;;;;;;10.16;100.00;101908.47;5082906;28;20051;-67
2023/11/23 11:36:13;;;;;;;10.38;4.03;;;;;;;10.15;100.00;101909.53;5081526;28;20046;-65
2023/11/23 11:39:05;;;;;;;14.90;4.20;;;;;;;10.16;100.00;101911.19;5094905;28;20047;-66
2023/11/23 11:41:59;;;;;;;9.75;4.32;;;;;;;10.20;100.00;101909.66;5097274;28;20504;-67
2023/11/23 11:44:51;;;;;;;9.65;4.55;;;;;;;10.20;100.00;101897.94;5077348;28;20134;-66
2023/11/23 11:47:40;;;;;;;10.80;4.00;;;;;;;10.24;100.00;101880.84;5109569;28;20043;-67
2023/11/23 11:50:29;;;;;;;11.60;4.00;;;;;;;10.26;100.00;101885.25;5110232;27;20043;-66
2023/11/23 11:53:19;;;;;;;9.68;3.88;;;;;;;10.28;100.00;101877.66;5116260;27;20141;-66
2023/11/23 11:56:07;;;;;;;14.20;4.25;;;;;;;10.27;100.00;101876.84;5114891;27;20205;-66
2023/11/23 11:58:56;;;;;;;14.43;4.10;;;;;;;10.29;100.00;101871.16;5096176;27;20055;-65
2023/11/23 12:01:46;;;;;;;11.40;3.97;;;;;;;10.30;100.00;101864.66;5116027;27;20062;-67
2023/11/23 12:04:35;;;;;;;12.82;4.15;;;;;;;10.32;100.00;101857.06;5090807;28;20044;-65
2023/11/23 12:07:24;;;;;;;13.55;3.88;;;;;;;10.34;100.00;101849.47;5075359;28;20077;-66
2023/11/23 12:10:13;;;;;;;9.02;3.53;;;;;;;10.33;100.00;101839.66;5107678;27;20571;-68
2023/11/23 12:13:01;;;;;;;12.63;3.83;;;;;;;10.35;100.00;101853.88;5080061;28;20128;-66
2023/11/23 12:15:53;;;;;;;8.57;3.10;;;;;;;10.39;100.00;101852.28;5091330;27;20133;-66
2023/11/23 12:18:41;;;;;;;13.82;3.70;;;;;;;10.39;100.00;101844.97;5076431;28;20134;-69
2023/11/23 12:21:29;;;;;;;11.32;3.63;;;;;;;10.39;100.00;101852.28;5112104;28;20048;-66
2023/11/23 12:24:19;;;;;;;13.05;3.85;;;;;;;10.42;100.00;101843.66;5116363;27;20043;-66
2023/11/23 12:27:07;;;;;;;10.73;3.60;;;;;;;10.43;100.00;101837.13;5078988;28;20094;-65
2023/11/23 12:29:55;;;;;;;11.57;4.05;;;;;;;10.43;100.00;101834.41;5093541;28;20123;-66
2023/11/23 12:32:43;;;;;;;10.65;4.00;;;;;;;10.43;100.00;101826.22;5079142;28;20526;-66
2023/11/23 12:35:32;;;;;;;12.18;3.55;;;;;;;10.43;100.00;101829.78;5106396;27;20051;-67
2023/11/23 12:38:20;;;;;;;11.95;4.13;;;;;;;10.47;100.00;101810.25;5118870;28;20043;-66
2023/11/23 12:41:08;;;;;;;13.45;4.25;;;;;;;10.47;100.00;101800.16;5118552;28;20052;-65
2023/11/23 12:43:59;;;;;;;9.90;3.85;;;;;;;10.48;100.00;101796.34;5098440;27;20125;-68
2023/11/23 12:46:47;;;;;;;14.65;3.53;;;;;;;10.51;100.00;101790.44;5092574;28;20060;-67
2023/11/23 12:49:35;;;;;;;10.77;3.05;;;;;;;10.54;100.00;101802.75;5110356;28;20412;-66